createdAt,value
2023-05-11T00:01:24.495Z,97141.06
2023-05-11T00:03:51.758Z,97157.38
2023-05-11T00:06:18.873Z,97176.88
2023-05-11T00:08:46.092Z,97189.59
2023-05-11T00:11:13.171Z,97195.59
2023-05-11T00:13:40.368Z,97213.63
2023-05-11T00:16:07.683Z,97224.38
2023-05-11T00:18:34.818Z,97249.19
2023-05-11T00:21:02.308Z,97264.19
2023-05-11T00:23:29.322Z,97293.63
2023-05-11T00:25:56.385Z,97313.84
2023-05-11T00:28:23.560Z,97332.59
2023-05-11T00:30:55.151Z,97344.09
2023-05-11T00:33:22.445Z,97369.69
2023-05-11T00:35:49.721Z,97381.59
2023-05-11T00:38:16.890Z,97388.59
2023-05-11T00:40:43.938Z,97397.97
2023-05-11T00:43:11.098Z,97400.66
2023-05-11T00:45:39.823Z,97399.75
2023-05-11T00:48:07.121Z,97408.63
2023-05-11T00:50:34.817Z,97418.34
2023-05-11T00:53:02.558Z,97433.78
2023-05-11T00:55:30.252Z,97435.41
2023-05-11T00:57:57.408Z,97447.81
2023-05-11T01:00:24.581Z,97443.25
2023-05-11T01:02:52.810Z,97444.81
2023-05-11T01:05:20.223Z,97463.97
2023-05-11T01:07:54.402Z,97470.19
2023-05-11T01:10:28.130Z,97467.75
2023-05-11T01:13:14.601Z,97491.38
2023-05-11T01:15:46.485Z,97504.25
2023-05-11T01:18:21.424Z,97507.16
2023-05-11T01:20:50.000Z,97525.78
2023-05-11T01:23:24.973Z,97529.63
2023-05-11T01:25:52.553Z,97536.78
2023-05-11T01:28:25.984Z,97547.53
2023-05-11T01:31:05.137Z,97539.69
2023-05-11T01:33:33.624Z,97543.19
2023-05-11T01:36:03.812Z,97569.75
2023-05-11T01:38:33.562Z,97588.13
2023-05-11T01:41:01.277Z,97585.19
2023-05-11T01:43:30.354Z,97588.75
2023-05-11T01:46:00.065Z,97619.97
2023-05-11T01:48:29.112Z,97665.97
2023-05-11T01:51:00.353Z,97673.31
2023-05-11T01:53:29.800Z,97694.03
2023-05-11T01:55:58.133Z,97710.78
2023-05-11T01:58:26.045Z,97716.91
2023-05-11T02:00:55.153Z,97730.00
2023-05-11T02:03:23.023Z,97751.66
2023-05-11T02:05:50.836Z,97754.44
2023-05-11T02:08:18.417Z,97790.75
2023-05-11T02:10:47.145Z,97787.91
2023-05-11T02:13:15.300Z,97820.69
2023-05-11T02:15:43.194Z,97833.41
2023-05-11T02:18:12.292Z,97819.88
2023-05-11T02:20:41.909Z,97839.78
2023-05-11T02:23:09.989Z,97838.56
2023-05-11T02:25:40.687Z,97857.38
2023-05-11T02:28:08.358Z,97874.88
2023-05-11T02:30:39.346Z,97874.50
2023-05-11T02:33:08.388Z,97862.63
2023-05-11T02:35:42.193Z,97883.94
2023-05-11T02:38:10.442Z,97879.66
2023-05-11T02:40:45.740Z,97890.34
2023-05-11T02:43:15.516Z,97897.19
2023-05-11T02:45:52.660Z,97899.59
2023-05-11T02:48:22.672Z,97899.47
2023-05-11T02:50:51.472Z,97895.38
2023-05-11T02:53:19.924Z,97905.88
2023-05-11T02:55:47.242Z,97917.09
2023-05-11T02:58:15.069Z,97920.81
2023-05-11T03:00:47.939Z,97918.03
2023-05-11T03:03:15.207Z,97938.25
2023-05-11T03:05:42.591Z,97949.47
2023-05-11T03:08:09.651Z,97951.94
2023-05-11T03:10:36.746Z,97985.81
2023-05-11T03:13:04.132Z,97998.13
2023-05-11T03:15:31.378Z,97999.41
2023-05-11T03:18:00.935Z,98013.81
2023-05-11T03:20:28.203Z,98004.47
2023-05-11T03:22:55.940Z,98026.78
2023-05-11T03:25:24.804Z,98032.56
2023-05-11T03:27:53.330Z,98052.03
2023-05-11T03:30:21.058Z,98086.72
2023-05-11T03:32:50.846Z,98092.28
2023-05-11T03:35:18.102Z,98106.56
2023-05-11T03:37:45.948Z,98111.16
2023-05-11T03:40:14.760Z,98115.09
2023-05-11T03:42:51.278Z,98128.09
2023-05-11T03:45:20.485Z,98169.03
2023-05-11T03:47:51.426Z,98181.03
2023-05-11T03:50:19.732Z,98198.38
2023-05-11T03:52:47.777Z,98209.78
2023-05-11T03:55:15.006Z,98219.47
2023-05-11T03:57:42.970Z,98233.13
2023-05-11T04:00:10.505Z,98223.25
2023-05-11T04:02:42.855Z,98242.66
2023-05-11T04:05:12.351Z,98249.28
2023-05-11T04:07:40.366Z,98271.16
2023-05-11T04:10:07.834Z,98277.38
2023-05-11T04:12:34.938Z,98296.81
2023-05-11T04:15:02.146Z,98307.56
2023-05-11T04:17:29.236Z,98328.84
2023-05-11T04:19:56.333Z,98336.50
2023-05-11T04:22:23.647Z,98341.25
2023-05-11T04:24:50.736Z,98353.25
2023-05-11T04:27:17.816Z,98339.81
2023-05-11T04:29:45.043Z,98363.78
2023-05-11T04:32:12.143Z,98387.34
2023-05-11T04:34:40.098Z,98393.97
2023-05-11T04:37:08.782Z,98398.53
2023-05-11T04:39:37.526Z,98399.34
2023-05-11T04:42:05.370Z,98404.28
2023-05-11T04:44:32.552Z,98466.28
2023-05-11T04:46:59.819Z,98724.03
2023-05-11T04:49:27.002Z,98728.34
2023-05-11T04:51:54.176Z,98753.84
2023-05-11T04:54:21.262Z,98762.72
2023-05-11T04:56:49.764Z,98775.75
2023-05-11T04:59:16.985Z,98789.59
2023-05-11T05:01:44.797Z,98788.47
2023-05-11T05:04:12.004Z,98808.94
2023-05-11T05:06:39.270Z,98824.66
2023-05-11T05:09:06.804Z,98831.47
2023-05-11T05:11:33.895Z,98842.03
2023-05-11T05:14:01.624Z,98860.19
2023-05-11T05:16:31.543Z,98875.09
2023-05-11T05:18:59.624Z,98873.81
2023-05-11T05:21:27.331Z,98890.09
2023-05-11T05:23:56.292Z,98914.09
2023-05-11T05:26:23.330Z,98970.47
2023-05-11T05:28:50.948Z,99014.72
2023-05-11T05:31:20.448Z,99034.63
2023-05-11T05:33:47.527Z,99047.13
2023-05-11T05:36:14.679Z,99062.78
2023-05-11T05:38:41.878Z,99071.50
2023-05-11T05:41:09.096Z,99079.81
2023-05-11T05:43:40.296Z,99082.00
2023-05-11T05:46:07.996Z,99092.34
2023-05-11T05:48:35.109Z,99105.41
2023-05-11T05:51:02.388Z,99102.44
2023-05-11T05:53:29.699Z,99114.09
2023-05-11T05:55:56.775Z,99122.81
2023-05-11T05:58:24.494Z,99130.22
2023-05-11T06:00:52.412Z,99155.78
2023-05-11T06:03:19.579Z,99152.56
2023-05-11T06:05:47.052Z,99174.53
2023-05-11T06:08:14.796Z,99172.03
2023-05-11T06:10:41.903Z,99194.72
2023-05-11T06:13:10.801Z,99205.09
2023-05-11T06:15:43.057Z,99217.88
2023-05-11T06:18:18.671Z,99222.72
2023-05-11T06:20:46.070Z,99240.22
2023-05-11T06:23:15.305Z,99248.47
2023-05-11T06:25:43.879Z,99250.03
2023-05-11T06:28:12.397Z,99276.19
2023-05-11T06:30:39.494Z,99296.13
2023-05-11T06:33:08.688Z,99316.22
2023-05-11T06:35:37.705Z,99325.50
2023-05-11T06:38:07.077Z,99333.84
2023-05-11T06:40:36.104Z,99352.47
2023-05-11T06:43:03.257Z,99362.03
2023-05-11T06:45:46.484Z,99355.34
2023-05-11T06:48:14.664Z,99385.38
2023-05-11T06:50:41.792Z,99394.78
2023-05-11T06:53:13.204Z,99396.31
2023-05-11T06:55:40.230Z,99414.97
2023-05-11T06:58:07.268Z,99423.69
2023-05-11T07:00:34.348Z,99434.31
2023-05-11T07:03:01.501Z,99450.97
2023-05-11T07:05:28.664Z,99461.94
2023-05-11T07:07:55.756Z,99473.81
2023-05-11T07:10:23.213Z,99486.06
2023-05-11T07:12:50.538Z,99490.59
2023-05-11T07:15:17.639Z,99505.50
2023-05-11T07:17:47.854Z,99521.31
2023-05-11T07:20:15.384Z,99514.41
2023-05-11T07:22:42.453Z,99524.50
2023-05-11T07:25:09.941Z,99544.38
2023-05-11T07:27:37.222Z,99567.84
2023-05-11T07:30:04.564Z,99570.00
2023-05-11T07:32:32.605Z,99580.25
2023-05-11T07:34:59.684Z,99595.72
2023-05-11T07:37:27.007Z,99599.72
2023-05-11T07:39:54.437Z,99606.47
2023-05-11T07:42:21.572Z,99611.84
2023-05-11T07:44:48.664Z,99622.44
2023-05-11T07:47:16.448Z,99634.50
2023-05-11T07:49:44.333Z,99647.41
2023-05-11T07:52:11.792Z,99644.06
2023-05-11T07:54:40.279Z,99651.81
2023-05-11T07:57:07.861Z,99648.66
2023-05-11T07:59:35.021Z,99666.09
2023-05-11T08:02:02.227Z,99673.66
2023-05-11T08:04:30.346Z,99685.06
2023-05-11T08:06:58.380Z,99698.47
2023-05-11T08:09:25.515Z,99694.41
2023-05-11T08:11:53.997Z,99716.56
2023-05-11T08:14:21.234Z,99724.81
2023-05-11T08:16:49.661Z,99723.63
2023-05-11T08:19:16.823Z,99731.69
2023-05-11T08:21:44.989Z,99744.81
2023-05-11T08:24:12.410Z,99740.78
2023-05-11T08:26:39.564Z,99749.22
2023-05-11T08:29:07.388Z,99772.09
2023-05-11T08:31:34.466Z,99773.13
2023-05-11T08:34:02.038Z,99780.31
2023-05-11T08:36:29.236Z,99797.91
2023-05-11T08:38:59.073Z,99797.25
2023-05-11T08:41:26.449Z,99806.28
2023-05-11T08:43:54.349Z,99810.34
2023-05-11T08:46:22.909Z,99826.97
2023-05-11T08:48:50.609Z,99831.16
2023-05-11T08:51:17.679Z,99844.47
2023-05-11T08:53:44.894Z,99856.38
2023-05-11T08:56:12.218Z,99868.78
2023-05-11T08:58:39.899Z,99871.09
2023-05-11T09:01:07.439Z,99882.84
2023-05-11T09:03:35.554Z,99882.25
2023-05-11T09:06:05.596Z,99897.22
2023-05-11T09:08:34.138Z,99891.81
2023-05-11T09:11:01.436Z,99900.91
2023-05-11T09:13:29.318Z,99905.28
2023-05-11T09:15:56.374Z,99900.78
2023-05-11T09:18:23.491Z,99911.47
2023-05-11T09:20:51.968Z,99927.13
2023-05-11T09:23:19.116Z,99928.59
2023-05-11T09:25:48.817Z,99934.53
2023-05-11T09:28:25.525Z,99942.91
2023-05-11T09:30:53.379Z,99940.41
2023-05-11T09:33:24.199Z,99958.22
2023-05-11T09:35:51.890Z,99550.72
2023-05-11T09:38:23.145Z,99565.22
2023-05-11T09:40:52.061Z,99566.34
2023-05-11T09:43:20.574Z,99563.50
2023-05-11T09:45:48.680Z,99555.50
2023-05-11T09:48:21.998Z,99567.91
2023-05-11T09:50:50.124Z,99569.88
2023-05-11T09:53:17.319Z,99566.81
2023-05-11T09:55:56.693Z,99571.34
2023-05-11T09:58:23.953Z,99562.44
2023-05-11T10:00:51.844Z,99566.88
2023-05-11T10:03:19.492Z,99569.88
2023-05-11T10:05:57.070Z,99574.59
2023-05-11T10:08:31.180Z,99566.88
2023-05-11T10:10:58.274Z,99569.31
2023-05-11T10:13:27.047Z,99582.22
2023-05-11T10:15:55.090Z,99565.34
2023-05-11T10:18:22.364Z,99564.84
2023-05-11T10:20:49.611Z,99563.66
2023-05-11T10:23:17.713Z,99572.84
2023-05-11T10:25:45.115Z,99566.63
2023-05-11T10:28:12.352Z,99574.25
2023-05-11T10:30:40.799Z,99583.28
2023-05-11T10:33:08.582Z,99579.25
2023-05-11T10:35:37.910Z,99585.03
2023-05-11T10:38:06.582Z,99590.03
2023-05-11T10:40:38.515Z,99576.09
2023-05-11T10:43:14.858Z,99581.59
2023-05-11T10:45:54.247Z,99591.22
2023-05-11T10:48:31.648Z,99588.00
2023-05-11T10:51:01.877Z,99592.16
2023-05-11T10:53:40.566Z,99611.50
2023-05-11T10:56:09.991Z,99590.53
2023-05-11T10:58:52.862Z,99596.53
2023-05-11T11:01:29.144Z,99582.44
2023-05-11T11:03:57.647Z,99592.28
2023-05-11T11:06:25.732Z,99621.63
2023-05-11T11:08:57.364Z,99618.94
2023-05-11T11:11:30.884Z,99618.31
2023-05-11T11:13:58.947Z,99610.31
2023-05-11T11:16:26.277Z,99609.06
2023-05-11T11:19:13.379Z,99612.78
2023-05-11T11:21:41.916Z,99593.41
2023-05-11T11:24:09.012Z,99611.75
2023-05-11T11:26:51.884Z,99621.50
2023-05-11T11:29:19.037Z,99607.03
2023-05-11T11:31:46.067Z,99635.84
2023-05-11T11:34:33.839Z,99646.72
2023-05-11T11:37:03.378Z,99608.16
2023-05-11T11:39:42.777Z,99623.19
2023-05-11T11:42:10.632Z,99618.66
2023-05-11T11:44:38.465Z,99635.81
2023-05-11T11:47:15.606Z,99636.94
2023-05-11T11:49:43.980Z,99619.84
2023-05-11T11:52:11.513Z,99631.94
2023-05-11T11:54:39.868Z,99626.63
2023-05-11T11:57:44.031Z,99638.78
2023-05-11T12:00:12.649Z,99622.09
2023-05-11T12:02:41.300Z,99639.00
2023-05-11T12:05:12.835Z,99717.44
2023-05-11T12:07:41.724Z,99785.78
2023-05-11T12:10:11.277Z,99918.25
2023-05-11T12:12:38.832Z,99944.31
2023-05-11T12:15:06.817Z,99968.03
2023-05-11T12:17:37.975Z,99980.63
2023-05-11T12:20:12.127Z,99984.31
2023-05-11T12:22:39.216Z,99990.72
2023-05-11T12:25:06.956Z,100007.22
2023-05-11T12:27:34.422Z,100001.84
2023-05-11T12:30:01.874Z,99995.50
2023-05-11T12:32:30.510Z,100010.94
2023-05-11T12:35:01.843Z,100006.44
2023-05-11T12:37:32.855Z,100008.28
2023-05-11T12:39:59.929Z,100014.69
2023-05-11T12:42:27.105Z,100025.47
2023-05-11T12:44:54.267Z,100013.72
2023-05-11T12:47:21.313Z,100026.31
2023-05-11T12:49:48.457Z,100030.38
2023-05-11T12:52:15.514Z,100037.25
2023-05-11T12:54:48.038Z,100038.25
2023-05-11T12:57:25.451Z,100041.94
2023-05-11T13:00:14.805Z,100033.81
2023-05-11T13:02:44.905Z,100016.69
2023-05-11T13:05:13.195Z,100029.28
2023-05-11T13:07:40.555Z,100028.97
2023-05-11T13:10:08.036Z,100026.13
2023-05-11T13:12:47.270Z,100023.44
2023-05-11T13:15:14.369Z,100007.44
2023-05-11T13:17:42.315Z,100008.28
2023-05-11T13:20:24.389Z,100011.66
2023-05-11T13:22:51.539Z,99979.22
2023-05-11T13:25:20.457Z,100000.78
2023-05-11T13:27:47.814Z,100007.97
2023-05-11T13:30:15.019Z,100011.69
2023-05-11T13:32:42.201Z,100004.78
2023-05-11T13:35:09.411Z,100027.97
2023-05-11T13:37:36.555Z,100018.22
2023-05-11T13:40:04.008Z,100024.75
2023-05-11T13:42:31.186Z,100030.97
2023-05-11T13:44:58.416Z,100019.50
2023-05-11T13:47:25.572Z,100029.47
2023-05-11T13:49:54.582Z,100029.63
2023-05-11T13:52:22.386Z,100036.47
2023-05-11T13:54:49.520Z,100035.13
2023-05-11T13:57:16.729Z,100023.41
2023-05-11T13:59:43.830Z,100021.06
2023-05-11T14:02:11.715Z,100026.09
2023-05-11T14:04:40.325Z,100017.53
2023-05-11T14:07:07.665Z,100021.72
2023-05-11T14:09:36.979Z,100026.78
2023-05-11T14:12:04.241Z,100028.25
2023-05-11T14:14:31.262Z,100032.94
2023-05-11T14:16:58.440Z,100023.69
2023-05-11T14:19:25.574Z,100018.88
2023-05-11T14:21:52.779Z,100017.84
2023-05-11T14:24:20.601Z,100028.41
2023-05-11T14:26:47.739Z,100020.50
2023-05-11T14:29:14.836Z,100014.63
2023-05-11T14:31:42.434Z,100022.75
2023-05-11T14:34:09.542Z,100024.09
2023-05-11T14:36:36.686Z,100030.94
2023-05-11T14:39:04.005Z,100025.06
2023-05-11T14:41:31.049Z,100015.66
2023-05-11T14:43:58.052Z,100024.75
2023-05-11T14:46:26.706Z,100032.81
2023-05-11T14:48:54.086Z,100028.25
2023-05-11T14:51:21.183Z,100039.19
2023-05-11T14:53:48.201Z,100040.88
2023-05-11T14:56:15.298Z,100036.16
2023-05-11T14:58:42.311Z,100040.16
2023-05-11T15:01:09.356Z,100029.78
2023-05-11T15:03:37.331Z,100046.25
2023-05-11T15:06:04.520Z,100038.84
2023-05-11T15:08:32.069Z,100045.53
2023-05-11T15:10:59.274Z,100049.09
2023-05-11T15:13:26.690Z,100047.22
2023-05-11T15:15:53.843Z,100040.03
2023-05-11T15:18:21.055Z,100047.09
2023-05-11T15:20:48.399Z,100037.34
2023-05-11T15:23:16.749Z,100048.50
2023-05-11T15:25:44.724Z,100045.63
2023-05-11T15:28:12.224Z,100053.03
2023-05-11T15:30:41.345Z,100045.31
2023-05-11T15:33:09.025Z,100045.69
2023-05-11T15:35:36.746Z,100055.78
2023-05-11T15:38:04.129Z,100057.47
2023-05-11T15:40:31.249Z,100060.84
2023-05-11T15:42:58.880Z,100064.16
2023-05-11T15:45:26.192Z,100047.41
2023-05-11T15:47:54.183Z,100044.88
2023-05-11T15:50:21.976Z,100035.50
2023-05-11T15:52:49.293Z,100041.19
2023-05-11T15:55:16.384Z,100039.34
2023-05-11T15:57:43.494Z,100052.47
2023-05-11T16:00:10.936Z,100047.75
2023-05-11T16:02:38.125Z,100040.72
2023-05-11T16:05:05.924Z,100040.38
2023-05-11T16:07:33.049Z,100045.91
2023-05-11T16:10:00.350Z,100048.97
2023-05-11T16:12:27.510Z,100046.78
2023-05-11T16:14:54.523Z,100049.50
2023-05-11T16:17:21.650Z,100042.75
2023-05-11T16:19:48.804Z,100052.66
2023-05-11T16:22:15.861Z,100056.34
2023-05-11T16:24:42.917Z,100065.97
2023-05-11T16:27:09.942Z,100047.13
2023-05-11T16:29:36.974Z,100053.50
2023-05-11T16:32:04.132Z,100035.19
2023-05-11T16:34:31.360Z,100043.78
2023-05-11T16:36:59.372Z,100035.03
2023-05-11T16:39:26.851Z,100045.94
2023-05-11T16:41:53.954Z,100043.78
2023-05-11T16:44:21.146Z,100013.31
2023-05-11T16:46:49.168Z,100032.47
2023-05-11T16:49:16.559Z,100032.97
2023-05-11T16:51:43.762Z,100039.00
2023-05-11T16:54:10.808Z,100042.94
2023-05-11T16:56:37.897Z,100040.69
2023-05-11T16:59:05.071Z,100017.31
2023-05-11T17:01:32.390Z,100030.09
2023-05-11T17:03:59.505Z,100032.28
2023-05-11T17:06:27.436Z,100032.47
2023-05-11T17:08:54.712Z,100042.38
2023-05-11T17:11:21.798Z,100033.81
2023-05-11T17:13:48.945Z,100030.28
2023-05-11T17:16:16.195Z,100039.03
2023-05-11T17:18:43.511Z,100021.19
2023-05-11T17:21:10.777Z,100036.31
2023-05-11T17:23:37.895Z,100034.94
2023-05-11T17:26:08.471Z,100030.59
2023-05-11T17:28:36.171Z,100022.69
2023-05-11T17:31:13.397Z,100009.38
2023-05-11T17:33:41.631Z,100014.09
2023-05-11T17:36:09.497Z,100026.53
2023-05-11T17:38:36.902Z,100042.69
2023-05-11T17:41:07.587Z,100038.31
2023-05-11T17:43:35.765Z,100029.22
2023-05-11T17:46:04.196Z,100038.28
2023-05-11T17:48:32.015Z,100029.06
2023-05-11T17:50:59.270Z,100038.66
2023-05-11T17:53:27.239Z,100049.56
2023-05-11T17:55:54.345Z,100047.72
2023-05-11T17:58:21.395Z,100056.63
2023-05-11T18:00:49.445Z,100034.25
2023-05-11T18:03:17.215Z,100038.28
2023-05-11T18:05:48.431Z,100037.63
2023-05-11T18:08:16.376Z,100040.47
2023-05-11T18:10:44.113Z,100035.22
2023-05-11T18:13:11.278Z,100038.91
2023-05-11T18:15:38.456Z,100058.28
2023-05-11T18:18:05.576Z,100052.41
2023-05-11T18:20:32.654Z,100055.25
2023-05-11T18:22:59.752Z,100059.44
2023-05-11T18:25:31.618Z,100060.47
2023-05-11T18:28:02.170Z,100052.56
2023-05-11T18:30:29.736Z,100050.38
2023-05-11T18:32:56.965Z,100057.75
2023-05-11T18:35:25.242Z,100043.63
2023-05-11T18:37:52.407Z,100062.63
2023-05-11T18:40:20.064Z,100071.53
2023-05-11T18:42:47.464Z,100068.03
2023-05-11T18:45:14.630Z,100059.06
2023-05-11T18:47:46.278Z,100061.91
2023-05-11T18:50:13.801Z,100060.06
2023-05-11T18:52:40.995Z,100047.94
2023-05-11T18:55:08.650Z,100080.41
2023-05-11T18:57:35.886Z,100087.31
2023-05-11T19:00:03.795Z,100080.63
2023-05-11T19:02:31.880Z,100077.56
2023-05-11T19:04:59.066Z,100089.34
2023-05-11T19:07:26.126Z,100078.25
2023-05-11T19:09:53.121Z,100067.44
2023-05-11T19:12:20.277Z,100088.63
2023-05-11T19:14:47.685Z,100085.56
2023-05-11T19:17:14.849Z,100080.84
2023-05-11T19:19:42.062Z,100083.69
2023-05-11T19:22:09.514Z,100085.94
2023-05-11T19:24:37.292Z,100080.34
2023-05-11T19:27:07.735Z,100086.75
2023-05-11T19:29:35.529Z,100083.59
2023-05-11T19:32:03.072Z,100089.75
2023-05-11T19:34:30.324Z,100090.28
2023-05-11T19:36:57.349Z,100074.78
2023-05-11T19:39:24.608Z,100092.44
2023-05-11T19:41:51.824Z,100087.75
2023-05-11T19:44:18.909Z,100074.44
2023-05-11T19:46:47.001Z,100091.94
2023-05-11T19:49:15.128Z,100075.09
2023-05-11T19:51:43.080Z,100074.72
2023-05-11T19:54:11.082Z,100087.84
2023-05-11T19:56:39.286Z,100079.44
2023-05-11T19:59:06.330Z,100089.88
2023-05-11T20:01:33.508Z,100084.81
2023-05-11T20:04:01.186Z,100098.13
2023-05-11T20:06:28.912Z,100079.13
2023-05-11T20:08:56.499Z,100075.34
2023-05-11T20:11:25.304Z,100087.66
2023-05-11T20:13:53.768Z,100075.97
2023-05-11T20:16:21.049Z,100072.81
2023-05-11T20:18:48.389Z,100077.66
2023-05-11T20:21:15.857Z,100068.41
2023-05-11T20:23:44.075Z,100058.13
2023-05-11T20:26:14.211Z,100070.94
2023-05-11T20:28:41.321Z,100077.19
2023-05-11T20:31:09.636Z,100071.44
2023-05-11T20:36:06.847Z,100074.97
2023-05-11T20:38:33.945Z,100072.63
2023-05-11T20:41:01.050Z,100072.63
2023-05-11T20:43:28.240Z,100090.81
2023-05-11T20:45:55.487Z,100077.66
2023-05-11T20:48:32.361Z,100071.25
2023-05-11T20:51:05.954Z,100061.41
2023-05-11T20:53:33.331Z,100080.72
2023-05-11T20:56:01.950Z,100077.47
2023-05-11T20:58:30.807Z,100077.50
2023-05-11T21:00:58.052Z,100077.66
2023-05-11T21:03:28.070Z,100071.78
2023-05-11T21:05:56.229Z,100072.28
2023-05-11T21:08:23.354Z,100075.81
2023-05-11T21:10:50.570Z,100077.47
2023-05-11T21:13:17.721Z,100068.22
2023-05-11T21:15:44.828Z,100066.22
2023-05-11T21:18:11.936Z,100073.78
2023-05-11T21:20:39.113Z,100074.63
2023-05-11T21:23:06.183Z,100082.03
2023-05-11T21:25:33.247Z,100073.47
2023-05-11T21:28:04.074Z,100072.28
2023-05-11T21:30:31.182Z,100072.28
2023-05-11T21:32:58.269Z,100076.16
2023-05-11T21:35:25.325Z,100063.59
2023-05-11T21:37:52.414Z,100068.94
2023-05-11T21:40:19.820Z,100057.53
2023-05-11T21:42:47.110Z,100068.94
2023-05-11T21:45:14.295Z,100048.09
2023-05-11T21:47:42.109Z,100056.31
2023-05-11T21:50:10.778Z,100065.56
2023-05-11T21:52:37.924Z,100065.56
2023-05-11T21:55:05.320Z,100055.16
2023-05-11T21:57:32.455Z,100057.69
2023-05-11T21:59:59.527Z,100061.88
2023-05-11T22:02:27.303Z,100071.28
2023-05-11T22:04:54.423Z,100064.88
2023-05-11T22:07:21.452Z,100072.63
2023-05-11T22:09:48.549Z,100063.19
2023-05-11T22:12:15.553Z,100065.22
2023-05-11T22:14:42.586Z,100066.22
2023-05-11T22:17:10.865Z,100069.22
2023-05-11T22:19:38.026Z,100070.53
2023-05-11T22:22:05.210Z,100074.72
2023-05-11T22:24:32.275Z,100084.84
2023-05-11T22:26:59.432Z,100084.38
2023-05-11T22:29:26.587Z,100086.34
2023-05-11T22:31:53.796Z,100089.41
2023-05-11T22:34:24.351Z,100090.41
2023-05-11T22:36:51.464Z,100089.41
2023-05-11T22:39:18.831Z,100096.09
2023-05-11T22:41:45.989Z,100093.56
2023-05-11T22:44:13.158Z,100088.34
2023-05-11T22:46:40.198Z,100094.09
2023-05-11T22:49:08.333Z,100097.16
2023-05-11T22:51:35.410Z,100089.53
2023-05-11T22:54:03.437Z,100087.84
2023-05-11T22:56:30.897Z,100099.94
2023-05-11T22:59:00.979Z,100085.47
2023-05-11T23:01:28.422Z,100082.97
2023-05-11T23:03:55.788Z,100090.38
2023-05-11T23:06:23.351Z,100091.16
2023-05-11T23:08:50.627Z,100081.44
2023-05-11T23:11:17.653Z,100082.97
2023-05-11T23:13:44.809Z,100083.97
2023-05-11T23:16:11.990Z,100078.75
2023-05-11T23:18:39.348Z,100080.03
2023-05-11T23:21:06.554Z,100075.53
2023-05-11T23:23:33.619Z,100079.38
2023-05-11T23:26:00.634Z,100075.31
2023-05-11T23:28:27.696Z,100094.00
2023-05-11T23:30:54.747Z,100085.59
2023-05-11T23:33:21.864Z,100079.16
2023-05-11T23:35:48.991Z,100090.97
2023-05-11T23:38:16.812Z,100096.69
2023-05-11T23:40:43.908Z,100095.53
2023-05-11T23:43:11.108Z,100097.03
2023-05-11T23:45:38.242Z,100096.53
2023-05-11T23:48:05.636Z,100096.69
2023-05-11T23:50:32.758Z,100101.06
2023-05-11T23:52:59.821Z,100109.56
2023-05-11T23:55:26.976Z,100112.03
2023-05-11T23:57:54.527Z,100108.84
